Time;durP1;ratioP1;P1;durP2;ratioP2;P2;SDS_P1;SDS_P2;PMS_P1;PMS_P2;Temp;Humidity;BMP_temperature;BMP_pressure;BME280_temperature;BME280_humidity;BME280_pressure;Samples;Min_cycle;Max_cycle;Signal;HPM_P1;HPM_P2
2023/12/15 00:00:35;;;;;;;15.20;9.23;;;6.90;99.90;;;;;;6149551;23;20016;-70
2023/12/15 00:03:21;;;;;;;13.60;9.60;;;6.90;99.90;;;;;;6150834;23;20438;-70
2023/12/15 00:06:07;;;;;;;15.32;8.75;;;6.90;99.90;;;;;;6152169;23;20096;-70
2023/12/15 00:08:53;;;;;;;12.93;8.10;;;6.90;99.90;;;;;;6150321;23;20458;-70
2023/12/15 00:11:39;;;;;;;12.77;8.45;;;6.90;99.90;;;;;;6150110;23;20104;-70
2023/12/15 00:14:25;;;;;;;13.15;8.52;;;6.80;99.90;;;;;;6130336;23;20346;-70
2023/12/15 00:17:11;;;;;;;13.05;7.78;;;6.70;99.90;;;;;;6150621;23;20064;-69
2023/12/15 00:19:57;;;;;;;10.80;7.50;;;6.60;99.90;;;;;;6149297;23;20006;-69
2023/12/15 00:22:43;;;;;;;12.30;7.63;;;6.60;99.90;;;;;;6131612;23;20040;-70
2023/12/15 00:25:29;;;;;;;12.35;7.32;;;6.60;99.90;;;;;;6150310;23;20013;-70
2023/12/15 00:28:15;;;;;;;14.15;8.15;;;6.60;99.90;;;;;;6150561;23;20033;-69
2023/12/15 00:31:01;;;;;;;11.27;7.68;;;6.60;99.90;;;;;;6148676;23;20022;-69
2023/12/15 00:33:47;;;;;;;12.80;7.82;;;6.50;99.90;;;;;;6132256;23;20390;-69
2023/12/15 00:36:33;;;;;;;12.15;7.15;;;6.50;99.90;;;;;;6129801;23;20009;-70
2023/12/15 00:39:18;;;;;;;10.32;6.95;;;6.50;99.90;;;;;;6130811;23;20104;-69
2023/12/15 00:42:05;;;;;;;12.55;7.72;;;6.50;99.90;;;;;;6151226;23;20076;-69
2023/12/15 00:44:51;;;;;;;12.88;7.82;;;6.50;99.90;;;;;;6130469;23;20092;-70
2023/12/15 00:47:38;;;;;;;11.70;7.80;;;6.50;99.90;;;;;;6150681;23;20014;-71
2023/12/15 00:50:28;;;;;;;10.88;7.43;;;6.50;99.90;;;;;;6150570;23;20018;-70
2023/12/15 00:53:14;;;;;;;10.00;6.72;;;6.50;99.90;;;;;;6148864;23;20009;-71
2023/12/15 00:56:00;;;;;;;13.85;8.35;;;6.50;99.90;;;;;;6130762;23;20309;-69
2023/12/15 00:58:46;;;;;;;13.60;8.18;;;6.40;99.90;;;;;;6150567;23;20017;-70
2023/12/15 01:01:32;;;;;;;13.05;7.57;;;6.50;99.90;;;;;;6150609;23;20006;-70
2023/12/15 01:04:18;;;;;;;11.98;7.90;;;6.50;99.90;;;;;;6149260;23;20024;-71
2023/12/15 01:07:04;;;;;;;13.02;7.85;;;6.50;99.90;;;;;;6149677;23;20013;-71
2023/12/15 01:09:50;;;;;;;12.88;7.88;;;6.50;99.90;;;;;;6150368;23;20143;-70
2023/12/15 01:12:37;;;;;;;12.75;7.55;;;6.50;99.90;;;;;;6150911;23;20022;-71
2023/12/15 01:15:23;;;;;;;10.73;7.25;;;6.50;99.90;;;;;;6149420;23;20013;-70
2023/12/15 01:18:09;;;;;;;11.52;7.70;;;6.50;99.90;;;;;;6149404;23;20317;-70
2023/12/15 01:20:55;;;;;;;12.52;7.63;;;6.50;99.90;;;;;;6150570;23;20312;-71
2023/12/15 01:23:41;;;;;;;10.70;6.93;;;6.50;99.90;;;;;;6150742;23;20152;-70
2023/12/15 01:26:27;;;;;;;12.68;7.68;;;6.50;99.90;;;;;;6149804;23;20009;-71
2023/12/15 01:29:12;;;;;;;11.57;7.55;;;6.40;99.90;;;;;;6150495;23;20420;-71
2023/12/15 01:31:58;;;;;;;10.93;7.50;;;6.50;99.90;;;;;;6150855;23;20029;-70
2023/12/15 01:34:44;;;;;;;13.00;7.35;;;6.50;99.90;;;;;;6149674;23;20092;-71
2023/12/15 01:37:30;;;;;;;14.25;7.72;;;6.50;99.90;;;;;;6130905;23;20043;-70
2023/12/15 01:40:16;;;;;;;12.30;7.55;;;6.50;99.90;;;;;;6149695;23;20013;-71
2023/12/15 01:43:02;;;;;;;12.00;7.00;;;6.40;99.90;;;;;;6150384;23;20013;-71
2023/12/15 01:45:48;;;;;;;11.35;7.65;;;6.50;99.90;;;;;;6130018;23;20512;-71
2023/12/15 01:48:34;;;;;;;13.90;8.00;;;6.50;99.90;;;;;;6150447;23;20063;-71
2023/12/15 01:51:21;;;;;;;12.82;7.13;;;6.50;99.90;;;;;;6149796;23;20018;-70
2023/12/15 01:54:07;;;;;;;12.20;7.63;;;6.50;99.90;;;;;;6148735;23;20114;-70
2023/12/15 01:56:53;;;;;;;14.95;7.80;;;6.50;99.90;;;;;;6150060;23;20020;-72
2023/12/15 01:59:46;;;;;;;12.70;7.88;;;6.50;99.90;;;;;;6150720;23;20096;-73
2023/12/15 02:02:33;;;;;;;11.02;6.78;;;6.50;99.90;;;;;;6150605;23;20062;-72
2023/12/15 02:05:19;;;;;;;10.57;7.22;;;6.50;99.90;;;;;;6148688;23;20020;-71
2023/12/15 02:08:05;;;;;;;10.52;7.18;;;6.60;99.90;;;;;;6150022;23;20020;-72
2023/12/15 02:10:51;;;;;;;14.57;8.52;;;6.50;99.90;;;;;;6150344;23;20254;-72
2023/12/15 02:13:37;;;;;;;10.50;7.18;;;6.50;99.90;;;;;;6152858;23;20002;-72
2023/12/15 02:16:23;;;;;;;11.73;7.68;;;6.50;99.90;;;;;;6152391;23;20017;-71
2023/12/15 02:19:10;;;;;;;10.85;7.50;;;6.50;99.90;;;;;;6151308;23;20020;-72
2023/12/15 02:21:56;;;;;;;12.73;8.95;;;6.40;99.90;;;;;;6152539;23;20037;-71
2023/12/15 02:24:41;;;;;;;10.38;7.43;;;6.40;99.90;;;;;;6151607;23;20343;-71
2023/12/15 02:27:27;;;;;;;10.40;7.25;;;6.40;99.90;;;;;;6152826;23;20014;-71
2023/12/15 02:30:13;;;;;;;14.55;8.40;;;6.30;99.90;;;;;;6151078;23;20031;-72
2023/12/15 02:32:59;;;;;;;15.40;8.60;;;6.30;99.90;;;;;;6152236;23;20013;-71
2023/12/15 02:35:47;;;;;;;12.73;8.65;;;6.30;99.90;;;;;;6151968;23;20044;-71
2023/12/15 02:38:33;;;;;;;11.65;7.30;;;6.20;99.90;;;;;;6151879;23;20024;-72
2023/12/15 02:41:21;;;;;;;10.57;6.95;;;6.20;99.90;;;;;;6151824;23;20062;-70
2023/12/15 02:44:07;;;;;;;13.65;8.27;;;6.20;99.90;;;;;;6151575;23;20014;-71
2023/12/15 02:46:52;;;;;;;11.50;7.28;;;6.20;99.90;;;;;;6151417;23;20006;-71
2023/12/15 02:49:39;;;;;;;10.50;7.38;;;6.10;99.90;;;;;;6150746;23;20048;-71
2023/12/15 02:52:25;;;;;;;10.90;7.28;;;6.10;99.90;;;;;;6153876;23;20013;-70
2023/12/15 02:55:13;;;;;;;12.38;7.57;;;6.00;99.90;;;;;;6132218;23;20076;-71
2023/12/15 02:57:58;;;;;;;10.48;6.75;;;6.00;99.90;;;;;;6151592;23;20323;-71
2023/12/15 03:00:46;;;;;;;9.15;6.45;;;6.00;99.90;;;;;;6151566;23;20009;-71
2023/12/15 03:03:32;;;;;;;11.98;7.22;;;5.90;99.90;;;;;;6150936;23;20010;-72
2023/12/15 03:06:18;;;;;;;11.32;6.38;;;5.90;99.90;;;;;;6150980;23;20241;-71
2023/12/15 03:09:04;;;;;;;11.18;6.60;;;5.80;99.90;;;;;;6152647;23;20076;-71
2023/12/15 03:11:50;;;;;;;11.02;6.45;;;5.80;99.90;;;;;;6151408;23;20018;-70
2023/12/15 03:14:36;;;;;;;10.50;6.03;;;5.80;99.90;;;;;;6151716;23;20016;-71
2023/12/15 03:17:22;;;;;;;11.85;6.78;;;5.70;99.90;;;;;;6151595;23;20010;-69
2023/12/15 03:20:08;;;;;;;10.75;7.40;;;5.70;99.90;;;;;;6150821;23;20274;-70
2023/12/15 03:22:59;;;;;;;9.32;6.32;;;5.60;99.90;;;;;;6150476;23;20443;-70
2023/12/15 03:25:45;;;;;;;10.30;6.57;;;5.60;99.90;;;;;;6152200;23;20025;-70
2023/12/15 03:28:31;;;;;;;10.07;6.03;;;5.50;99.90;;;;;;6151782;23;20096;-70
2023/12/15 03:31:17;;;;;;;9.88;6.70;;;5.50;99.90;;;;;;6151149;23;20419;-71
2023/12/15 03:34:03;;;;;;;11.27;6.70;;;5.50;99.90;;;;;;6151249;23;20010;-70
2023/12/15 03:36:48;;;;;;;10.52;7.05;;;5.50;99.90;;;;;;6151639;23;20017;-70
2023/12/15 03:39:35;;;;;;;10.77;6.72;;;5.40;99.90;;;;;;6151226;23;20010;-70
2023/12/15 03:42:21;;;;;;;10.73;7.10;;;5.40;99.90;;;;;;6150672;23;20020;-69
2023/12/15 03:45:07;;;;;;;11.02;6.47;;;5.40;99.90;;;;;;6151062;23;20503;-69
2023/12/15 03:47:53;;;;;;;11.65;7.70;;;5.30;99.90;;;;;;6151807;23;20525;-70
2023/12/15 03:50:39;;;;;;;10.55;7.10;;;5.30;99.90;;;;;;6150521;23;20025;-70
2023/12/15 03:53:25;;;;;;;11.52;7.07;;;5.30;99.90;;;;;;6152050;23;20439;-69
2023/12/15 03:56:11;;;;;;;11.20;7.28;;;5.20;99.90;;;;;;6151052;23;20009;-70
2023/12/15 03:58:57;;;;;;;11.38;7.63;;;5.20;99.90;;;;;;6150858;23;20005;-70
2023/12/15 04:01:43;;;;;;;10.98;6.85;;;5.20;99.90;;;;;;6149149;23;20013;-69
2023/12/15 04:04:29;;;;;;;10.77;7.15;;;5.20;99.90;;;;;;6151096;23;20013;-69
2023/12/15 04:07:15;;;;;;;10.57;6.97;;;5.20;99.90;;;;;;6130028;23;20439;-71
2023/12/15 04:10:01;;;;;;;11.85;7.07;;;5.10;99.90;;;;;;6151041;23;20017;-70
2023/12/15 04:12:46;;;;;;;10.07;7.03;;;5.10;99.90;;;;;;6150361;23;20045;-70
2023/12/15 04:15:32;;;;;;;13.57;7.97;;;5.00;99.90;;;;;;6150686;23;20013;-70
2023/12/15 04:18:19;;;;;;;9.80;7.18;;;5.10;99.90;;;;;;6152118;23;20038;-70
2023/12/15 04:21:07;;;;;;;11.32;7.07;;;5.00;99.90;;;;;;6151913;23;20044;-70
2023/12/15 04:23:53;;;;;;;12.38;8.00;;;5.00;99.90;;;;;;6150907;23;20364;-69
2023/12/15 04:26:40;;;;;;;10.73;7.30;;;5.00;99.90;;;;;;6150348;23;20001;-69
2023/12/15 04:29:25;;;;;;;12.52;8.05;;;5.00;99.90;;;;;;6149584;23;20339;-70
2023/12/15 04:32:13;;;;;;;13.45;8.25;;;5.00;99.90;;;;;;6150199;23;20104;-71
2023/12/15 04:34:59;;;;;;;11.90;7.80;;;5.00;99.90;;;;;;6149809;23;20044;-71
2023/12/15 04:37:45;;;;;;;12.57;8.30;;;5.00;99.90;;;;;;6150476;23;20014;-72
2023/12/15 04:40:31;;;;;;;12.43;8.35;;;5.00;99.90;;;;;;6149794;23;20391;-72
2023/12/15 04:43:16;;;;;;;13.43;7.95;;;5.00;99.90;;;;;;6150041;23;20013;-72
2023/12/15 04:46:02;;;;;;;13.40;8.30;;;4.90;99.90;;;;;;6150742;23;20314;-71
2023/12/15 04:48:48;;;;;;;14.73;8.68;;;4.90;99.90;;;;;;6150939;23;20041;-71
2023/12/15 04:51:34;;;;;;;14.23;8.73;;;4.90;99.90;;;;;;6151230;23;20484;-71
2023/12/15 04:54:20;;;;;;;11.70;8.68;;;4.90;99.90;;;;;;6150358;23;20395;-71
2023/12/15 04:57:06;;;;;;;14.18;8.50;;;5.00;99.90;;;;;;6150462;23;20114;-71
2023/12/15 04:59:52;;;;;;;14.30;8.38;;;5.00;99.90;;;;;;6148796;23;20009;-73
2023/12/15 05:02:38;;;;;;;14.27;7.53;;;5.00;99.90;;;;;;6150460;23;20017;-71
2023/12/15 05:05:24;;;;;;;14.10;7.90;;;5.00;99.90;;;;;;6150224;23;20470;-71
2023/12/15 05:08:10;;;;;;;13.30;7.88;;;5.00;99.90;;;;;;6148316;23;20020;-71
2023/12/15 05:10:56;;;;;;;12.05;7.45;;;5.00;99.90;;;;;;6149625;23;20467;-72
2023/12/15 05:13:42;;;;;;;14.98;8.75;;;5.00;99.90;;;;;;6148928;23;20032;-71
2023/12/15 05:16:29;;;;;;;13.10;7.93;;;5.00;99.90;;;;;;6148996;23;20068;-71
2023/12/15 05:19:15;;;;;;;10.40;6.78;;;5.00;99.90;;;;;;6150576;23;20060;-71
2023/12/15 05:22:01;;;;;;;11.25;7.00;;;5.00;99.90;;;;;;6150163;23;20101;-71
2023/12/15 05:24:47;;;;;;;11.00;7.00;;;5.00;99.90;;;;;;6148245;23;20035;-71
2023/12/15 05:27:33;;;;;;;11.73;7.05;;;5.00;99.90;;;;;;6149409;23;20018;-71
2023/12/15 05:30:19;;;;;;;15.27;9.35;;;5.00;99.90;;;;;;6150093;23;20402;-71
2023/12/15 05:33:05;;;;;;;12.77;7.57;;;5.00;99.90;;;;;;6150129;23;20079;-64
2023/12/15 05:35:50;;;;;;;11.95;7.70;;;5.00;99.90;;;;;;6147944;23;20705;-64
2023/12/15 05:38:36;;;;;;;10.15;6.68;;;5.00;99.90;;;;;;6150773;23;20407;-68
2023/12/15 05:41:22;;;;;;;12.43;7.20;;;5.00;99.90;;;;;;6150414;23;20009;-67
2023/12/15 05:44:08;;;;;;;10.93;6.80;;;5.00;99.90;;;;;;6150378;23;20088;-68
2023/12/15 05:46:54;;;;;;;13.23;8.07;;;5.00;99.90;;;;;;6151130;23;20041;-66
2023/12/15 05:49:40;;;;;;;10.95;7.32;;;5.00;99.90;;;;;;6149941;23;20096;-69
2023/12/15 05:52:26;;;;;;;11.23;7.53;;;5.00;99.90;;;;;;6147275;23;20383;-68
2023/12/15 05:55:12;;;;;;;12.27;8.13;;;5.00;99.90;;;;;;6149633;23;20442;-68
2023/12/15 05:57:58;;;;;;;11.68;6.97;;;5.00;99.90;;;;;;6149572;23;20557;-67
2023/12/15 06:00:44;;;;;;;13.88;8.88;;;5.00;99.90;;;;;;6149030;23;20009;-69
2023/12/15 06:03:30;;;;;;;14.52;8.38;;;5.10;99.90;;;;;;6150429;23;20320;-69
2023/12/15 06:06:16;;;;;;;15.38;7.70;;;5.10;99.90;;;;;;6149407;23;20032;-69
2023/12/15 06:09:02;;;;;;;13.50;8.43;;;5.10;99.90;;;;;;6127268;23;20072;-71
2023/12/15 06:11:49;;;;;;;14.15;8.02;;;5.10;99.90;;;;;;6149063;23;20024;-71
2023/12/15 06:14:37;;;;;;;12.80;8.52;;;5.20;99.90;;;;;;6147667;23;20041;-72
2023/12/15 06:17:23;;;;;;;14.18;8.55;;;5.20;99.90;;;;;;6149693;23;20361;-71
2023/12/15 06:20:12;;;;;;;14.60;7.85;;;5.20;99.90;;;;;;6149534;23;20020;-71
2023/12/15 06:22:58;;;;;;;13.10;8.05;;;5.20;99.90;;;;;;6149280;23;20016;-71
2023/12/15 06:25:44;;;;;;;12.40;8.52;;;5.20;99.90;;;;;;6148886;23;20088;-72
2023/12/15 06:28:30;;;;;;;14.13;7.72;;;5.20;99.90;;;;;;6149090;23;20040;-72
2023/12/15 06:31:16;;;;;;;14.63;9.00;;;5.20;99.90;;;;;;6148175;23;20084;-72
2023/12/15 06:34:03;;;;;;;14.93;9.27;;;5.30;99.90;;;;;;6148204;23;20020;-71
2023/12/15 06:36:49;;;;;;;15.15;9.73;;;5.30;99.90;;;;;;6148645;23;20021;-72
2023/12/15 06:39:35;;;;;;;17.45;11.20;;;5.30;99.90;;;;;;6148530;23;20068;-74
2023/12/15 06:42:21;;;;;;;14.10;9.52;;;5.30;99.90;;;;;;6149146;23;20020;-74
2023/12/15 06:45:08;;;;;;;16.52;9.55;;;5.40;99.90;;;;;;6130537;23;20013;-73
2023/12/15 06:47:57;;;;;;;18.30;11.02;;;5.30;99.90;;;;;;6129859;23;20009;-72
2023/12/15 06:50:43;;;;;;;16.75;9.00;;;5.40;99.90;;;;;;6148347;23;20508;-71
2023/12/15 06:53:29;;;;;;;14.05;8.85;;;5.40;99.90;;;;;;6149094;23;20014;-72
2023/12/15 06:56:15;;;;;;;16.23;9.45;;;5.40;99.90;;;;;;6150300;23;20009;-72
2023/12/15 06:59:01;;;;;;;15.00;9.55;;;5.40;99.90;;;;;;6151813;23;20470;-72
2023/12/15 07:01:47;;;;;;;15.93;9.93;;;5.50;99.90;;;;;;6150617;23;20005;-72
2023/12/15 07:04:33;;;;;;;19.75;10.88;;;5.50;99.90;;;;;;6151114;23;20018;-73
2023/12/15 07:07:19;;;;;;;16.08;9.40;;;5.50;99.90;;;;;;6152364;23;20316;-73
2023/12/15 07:10:05;;;;;;;16.33;10.45;;;5.60;99.90;;;;;;6152129;23;20009;-71
2023/12/15 07:12:51;;;;;;;15.60;9.80;;;5.60;99.90;;;;;;6152752;23;20013;-72
2023/12/15 07:15:38;;;;;;;15.98;10.15;;;5.60;99.90;;;;;;6150884;23;20366;-71
2023/12/15 07:18:24;;;;;;;17.10;9.85;;;5.60;99.90;;;;;;6149483;23;20046;-72
2023/12/15 07:21:10;;;;;;;15.63;10.38;;;5.70;99.90;;;;;;6150521;23;20016;-72
2023/12/15 07:23:56;;;;;;;20.45;10.73;;;5.70;99.90;;;;;;6128723;23;20064;-71
2023/12/15 07:26:42;;;;;;;16.88;10.43;;;5.70;99.90;;;;;;6151486;23;20018;-71
2023/12/15 07:29:28;;;;;;;16.05;9.38;;;5.70;99.90;;;;;;6150926;23;20104;-72
2023/12/15 07:32:14;;;;;;;18.30;10.57;;;5.70;99.90;;;;;;6151584;23;20446;-72
2023/12/15 07:35:00;;;;;;;20.05;12.13;;;5.70;99.90;;;;;;6148825;23;20010;-72
2023/12/15 07:37:45;;;;;;;20.75;11.60;;;5.80;99.90;;;;;;6151532;23;20041;-71
2023/12/15 07:40:31;;;;;;;21.17;12.13;;;5.80;99.90;;;;;;6151291;23;20084;-72
2023/12/15 07:43:17;;;;;;;17.77;10.52;;;5.80;99.90;;;;;;6149945;23;20048;-72
2023/12/15 07:46:03;;;;;;;18.20;10.35;;;5.80;99.90;;;;;;6150920;23;20014;-71
2023/12/15 07:48:50;;;;;;;15.63;10.68;;;5.80;99.90;;;;;;6152297;23;20343;-72
2023/12/15 07:51:36;;;;;;;17.95;11.52;;;5.80;99.90;;;;;;6152254;23;20075;-73
2023/12/15 07:54:22;;;;;;;18.65;11.20;;;5.80;99.90;;;;;;6152709;23;20009;-71
2023/12/15 07:57:08;;;;;;;16.48;10.45;;;5.80;99.90;;;;;;6150870;23;20084;-71
2023/12/15 07:59:54;;;;;;;22.17;12.43;;;5.80;99.90;;;;;;6150875;23;20060;-71
2023/12/15 08:02:41;;;;;;;20.27;10.93;;;5.80;99.90;;;;;;6151531;23;20071;-71
2023/12/15 08:05:27;;;;;;;20.52;10.70;;;5.90;99.90;;;;;;6151553;23;20466;-71
2023/12/15 08:08:13;;;;;;;26.00;12.00;;;5.90;99.90;;;;;;6150394;23;20458;-72
2023/12/15 08:10:59;;;;;;;17.50;10.95;;;5.90;99.90;;;;;;6152702;23;20022;-72
2023/12/15 08:13:46;;;;;;;20.10;11.88;;;6.00;99.90;;;;;;6150329;23;20009;-71
2023/12/15 08:16:33;;;;;;;20.63;11.25;;;6.00;99.90;;;;;;6151621;23;20013;-72
2023/12/15 08:19:19;;;;;;;16.83;11.05;;;6.00;99.90;;;;;;6151939;23;20077;-72
2023/12/15 08:22:05;;;;;;;27.67;12.55;;;6.00;99.90;;;;;;6151215;23;20014;-65
2023/12/15 08:24:52;;;;;;;19.52;12.00;;;6.00;99.90;;;;;;6131208;23;20321;-63
2023/12/15 08:27:40;;;;;;;19.88;12.02;;;6.00;99.90;;;;;;6130420;23;20025;-63
2023/12/15 08:30:26;;;;;;;20.15;11.70;;;6.00;99.90;;;;;;6151829;23;20403;-63
2023/12/15 08:33:12;;;;;;;21.27;12.45;;;6.10;99.90;;;;;;6150593;23;20009;-63
2023/12/15 08:35:58;;;;;;;22.17;12.43;;;6.10;99.90;;;;;;6151471;23;20010;-66
2023/12/15 08:38:44;;;;;;;22.27;12.38;;;6.20;99.90;;;;;;6128724;23;20045;-63
2023/12/15 08:41:30;;;;;;;25.98;13.20;;;6.20;99.90;;;;;;6149991;23;20063;-63
2023/12/15 08:44:15;;;;;;;23.35;13.55;;;6.10;99.90;;;;;;6152164;23;20089;-63
2023/12/15 08:47:01;;;;;;;23.60;12.68;;;6.10;99.90;;;;;;6152554;23;20471;-63
2023/12/15 08:49:48;;;;;;;22.35;13.43;;;6.20;99.90;;;;;;6130304;23;20041;-63
2023/12/15 08:52:34;;;;;;;27.83;13.50;;;6.20;99.90;;;;;;6151047;23;20455;-63
2023/12/15 08:55:19;;;;;;;22.60;13.85;;;6.20;99.90;;;;;;6151039;23;20056;-63
2023/12/15 08:58:05;;;;;;;25.60;15.25;;;6.20;99.90;;;;;;6150972;23;20096;-63
2023/12/15 09:00:51;;;;;;;25.50;15.40;;;6.20;99.90;;;;;;6150078;23;20281;-64
2023/12/15 09:03:37;;;;;;;26.98;14.73;;;6.20;99.90;;;;;;6131165;23;20049;-63
2023/12/15 09:06:23;;;;;;;29.38;15.73;;;6.20;99.90;;;;;;6149399;23;20435;-63
2023/12/15 09:09:10;;;;;;;29.77;16.10;;;6.20;99.90;;;;;;6150191;23;20013;-63
2023/12/15 09:11:56;;;;;;;25.20;14.57;;;6.20;99.90;;;;;;6129178;23;20017;-66
2023/12/15 09:14:42;;;;;;;23.67;14.27;;;6.30;99.90;;;;;;6150296;23;20121;-63
2023/12/15 09:17:28;;;;;;;24.67;13.73;;;6.30;99.90;;;;;;6130735;23;20402;-64
2023/12/15 09:20:14;;;;;;;25.67;13.30;;;6.30;99.90;;;;;;6150468;23;20009;-63
2023/12/15 09:23:06;;;;;;;25.20;14.00;;;6.30;99.90;;;;;;6130239;23;20064;-64
2023/12/15 09:25:53;;;;;;;22.40;13.43;;;6.40;99.90;;;;;;6151349;23;20006;-64
2023/12/15 09:28:39;;;;;;;23.23;14.15;;;6.40;99.90;;;;;;6151688;23;20057;-64
2023/12/15 09:31:25;;;;;;;22.10;12.43;;;6.50;99.90;;;;;;6149882;23;20036;-64
2023/12/15 09:34:11;;;;;;;23.67;14.32;;;6.50;99.90;;;;;;6129463;23;20010;-63
2023/12/15 09:36:57;;;;;;;23.52;12.65;;;6.60;99.90;;;;;;6150542;23;20020;-63
2023/12/15 09:39:43;;;;;;;25.80;13.10;;;6.60;99.90;;;;;;6151299;23;20071;-63
2023/12/15 09:42:29;;;;;;;21.25;12.32;;;6.60;99.90;;;;;;6150328;23;20359;-63
2023/12/15 09:45:16;;;;;;;45.88;15.18;;;6.70;99.90;;;;;;6151503;23;20089;-63
2023/12/15 09:48:06;;;;;;;32.70;13.90;;;6.80;99.90;;;;;;6150781;23;20010;-63
2023/12/15 09:50:55;;;;;;;23.17;13.73;;;6.80;99.90;;;;;;6150336;23;20028;-64
2023/12/15 09:53:48;;;;;;;24.73;12.68;;;6.80;99.90;;;;;;6130323;23;20006;-63
2023/12/15 09:56:34;;;;;;;25.40;13.95;;;6.90;99.90;;;;;;6151411;23;20013;-63
2023/12/15 09:59:21;;;;;;;30.77;14.75;;;6.90;99.90;;;;;;6150127;23;20014;-63
2023/12/15 10:02:07;;;;;;;28.02;16.17;;;6.90;99.90;;;;;;6149735;23;20443;-64
2023/12/15 10:04:53;;;;;;;29.05;15.75;;;7.00;99.90;;;;;;6150171;23;20013;-63
2023/12/15 10:07:39;;;;;;;34.08;17.08;;;7.10;99.90;;;;;;6150063;23;20013;-64
2023/12/15 10:10:26;;;;;;;26.42;15.43;;;7.10;99.90;;;;;;6148841;23;20454;-63
2023/12/15 10:13:12;;;;;;;26.08;13.88;;;7.20;99.90;;;;;;6150814;23;20010;-63
2023/12/15 10:15:58;;;;;;;23.75;12.82;;;7.20;99.90;;;;;;6149319;23;20044;-63
2023/12/15 10:18:44;;;;;;;21.42;13.40;;;7.20;99.90;;;;;;6150215;23;20009;-64
2023/12/15 10:21:34;;;;;;;25.23;14.02;;;7.30;99.90;;;;;;6129801;23;20108;-63
2023/12/15 10:24:24;;;;;;;22.45;13.45;;;7.30;99.90;;;;;;6151163;23;20017;-63
2023/12/15 10:27:10;;;;;;;23.10;14.23;;;7.30;99.90;;;;;;6150414;23;20009;-63
2023/12/15 10:29:56;;;;;;;24.00;14.02;;;7.30;99.90;;;;;;6179008;23;20058;-64
2023/12/15 10:32:44;;;;;;;21.77;13.57;;;7.40;99.90;;;;;;6181283;23;20120;-65
2023/12/15 10:35:31;;;;;;;20.90;13.02;;;7.40;99.90;;;;;;6179094;23;20116;-65
2023/12/15 10:38:17;;;;;;;23.42;14.20;;;7.40;99.90;;;;;;6182910;23;20113;-65
2023/12/15 10:41:04;;;;;;;21.63;13.07;;;7.40;99.90;;;;;;6180799;23;20362;-67
2023/12/15 10:43:51;;;;;;;23.00;12.73;;;7.50;99.90;;;;;;6182314;23;20009;-67
2023/12/15 10:46:40;;;;;;;23.80;14.38;;;7.50;99.90;;;;;;6160473;23;20032;-64
2023/12/15 10:49:27;;;;;;;22.80;14.55;;;7.50;99.90;;;;;;6162539;23;20040;-64
2023/12/15 10:52:15;;;;;;;23.85;14.75;;;7.50;99.90;;;;;;6181291;23;20056;-66
2023/12/15 10:55:04;;;;;;;20.38;12.80;;;7.40;99.90;;;;;;6180846;23;20009;-66
2023/12/15 10:57:50;;;;;;;21.55;13.88;;;7.50;99.90;;;;;;6182247;23;20390;-64
2023/12/15 11:00:36;;;;;;;21.75;13.55;;;7.40;99.90;;;;;;6180525;23;20024;-65
2023/12/15 11:03:23;;;;;;;21.92;13.55;;;7.40;99.90;;;;;;6181085;23;20009;-65
2023/12/15 11:06:09;;;;;;;21.42;13.35;;;7.40;99.90;;;;;;6181208;23;20017;-60
2023/12/15 11:09:06;;;;;;;24.27;13.57;;;7.40;99.90;;;;;;6155722;23;20451;-61
2023/12/15 11:12:08;;;;;;;23.38;13.18;;;7.40;99.90;;;;;;6178051;23;20086;-62
2023/12/15 11:14:57;;;;;;;26.50;13.90;;;7.40;99.90;;;;;;6181131;23;20020;-63
2023/12/15 11:18:03;;;;;;;23.52;14.05;;;7.40;99.90;;;;;;6160253;23;20013;-63
2023/12/15 11:20:50;;;;;;;21.35;13.25;;;7.40;99.90;;;;;;6182526;23;20021;-62
2023/12/15 11:24:04;;;;;;;20.40;13.25;;;7.40;99.90;;;;;;6182379;23;20009;-63
2023/12/15 11:26:50;;;;;;;27.05;13.25;;;7.50;99.90;;;;;;6158971;23;20009;-63
2023/12/15 11:29:36;;;;;;;24.10;13.60;;;7.50;99.90;;;;;;6182527;23;20028;-63
2023/12/15 11:32:35;;;;;;;24.52;15.23;;;7.50;99.90;;;;;;6182789;23;20024;-63
2023/12/15 11:35:30;;;;;;;22.15;13.60;;;7.50;99.90;;;;;;6181311;23;20327;-62
2023/12/15 11:38:19;;;;;;;24.60;13.98;;;7.50;99.90;;;;;;6180470;23;20009;-62
2023/12/15 11:41:06;;;;;;;25.55;13.48;;;7.50;99.90;;;;;;6181331;23;20032;-62
2023/12/15 11:43:52;;;;;;;20.98;13.38;;;7.50;99.90;;;;;;6182420;23;20009;-62
2023/12/15 11:46:39;;;;;;;24.92;14.02;;;7.40;99.90;;;;;;6177879;23;20478;-62
2023/12/15 11:49:25;;;;;;;24.27;14.07;;;7.50;99.90;;;;;;6180389;23;20001;-62
2023/12/15 11:52:12;;;;;;;26.67;15.27;;;7.50;99.90;;;;;;6182325;23;20028;-63
2023/12/15 11:54:59;;;;;;;23.13;13.00;;;7.50;99.90;;;;;;6180452;23;20009;-62
2023/12/15 11:57:45;;;;;;;22.45;13.57;;;7.40;99.90;;;;;;6179394;23;20075;-75
2023/12/15 12:00:31;;;;;;;20.83;13.10;;;7.40;99.90;;;;;;6182718;23;20299;-76
2023/12/15 12:03:19;;;;;;;21.92;13.73;;;7.40;99.90;;;;;;6181683;23;20041;-75
2023/12/15 12:06:08;;;;;;;22.67;14.10;;;7.50;99.90;;;;;;6179767;23;20013;-75
2023/12/15 12:08:54;;;;;;;22.65;14.70;;;7.40;99.90;;;;;;6179319;23;20020;-75
2023/12/15 12:11:40;;;;;;;22.17;14.10;;;7.50;99.90;;;;;;6159724;23;20040;-62
2023/12/15 12:14:27;;;;;;;26.20;13.77;;;7.50;99.90;;;;;;6182878;23;20008;-62
2023/12/15 12:17:14;;;;;;;22.77;13.80;;;7.50;99.90;;;;;;6179554;23;20017;-61
2023/12/15 12:20:10;;;;;;;24.75;14.50;;;7.50;99.90;;;;;;6181524;23;20005;-62
2023/12/15 12:22:56;;;;;;;23.23;13.52;;;7.50;99.90;;;;;;6181587;23;20008;-62
2023/12/15 12:25:47;;;;;;;23.13;14.20;;;7.50;99.90;;;;;;6181115;23;20005;-62
2023/12/15 12:28:47;;;;;;;32.97;18.00;;;7.50;99.90;;;;;;6162186;23;20068;-62
2023/12/15 12:31:33;;;;;;;29.27;17.42;;;7.50;99.90;;;;;;6149901;23;20025;-62
2023/12/15 12:34:19;;;;;;;26.67;15.70;;;7.50;99.90;;;;;;6148912;23;20045;-62
2023/12/15 12:37:06;;;;;;;25.60;14.77;;;7.50;99.90;;;;;;6148945;23;20014;-62
2023/12/15 12:39:52;;;;;;;26.52;14.82;;;7.60;99.90;;;;;;6147680;23;20013;-63
2023/12/15 12:42:38;;;;;;;23.13;13.88;;;7.60;99.90;;;;;;6151158;23;20092;-62
2023/12/15 12:45:24;;;;;;;26.42;14.18;;;7.60;99.90;;;;;;6151225;23;20016;-62
2023/12/15 12:48:10;;;;;;;28.60;15.15;;;7.60;99.90;;;;;;6151028;23;20136;-63
2023/12/15 12:50:56;;;;;;;27.30;16.65;;;7.60;99.90;;;;;;6150389;23;20108;-62
2023/12/15 12:53:42;;;;;;;27.02;15.88;;;7.60;99.90;;;;;;6150523;23;20343;-62
2023/12/15 12:56:28;;;;;;;27.63;15.05;;;7.60;99.90;;;;;;6150608;23;20518;-63
2023/12/15 12:59:14;;;;;;;25.67;15.38;;;7.60;99.90;;;;;;6148057;23;20040;-62
2023/12/15 13:02:00;;;;;;;28.95;15.18;;;7.60;99.90;;;;;;6151673;23;20447;-63
2023/12/15 13:04:46;;;;;;;23.60;13.98;;;7.60;99.90;;;;;;6146288;23;20040;-64
2023/12/15 13:07:35;;;;;;;28.17;15.48;;;7.60;99.90;;;;;;6150020;23;20014;-64
2023/12/15 13:10:21;;;;;;;23.25;14.00;;;7.70;99.90;;;;;;6151664;23;20010;-63
2023/12/15 13:13:08;;;;;;;22.35;14.52;;;7.60;99.90;;;;;;6149211;23;20053;-63
2023/12/15 13:15:54;;;;;;;25.65;15.98;;;7.70;99.90;;;;;;6150926;23;20092;-63
2023/12/15 13:18:41;;;;;;;25.02;14.43;;;7.70;99.90;;;;;;6149935;23;20024;-63
2023/12/15 13:21:27;;;;;;;24.50;14.13;;;7.70;99.90;;;;;;6150116;23;20014;-63
2023/12/15 13:24:14;;;;;;;25.27;13.70;;;7.70;99.90;;;;;;6128113;23;20041;-63
2023/12/15 13:27:00;;;;;;;24.60;13.88;;;7.70;99.90;;;;;;6151229;23;20016;-64
2023/12/15 13:29:47;;;;;;;22.92;13.15;;;7.70;99.90;;;;;;6150876;23;20022;-64
2023/12/15 13:32:32;;;;;;;25.33;14.75;;;7.70;99.90;;;;;;6147260;23;20459;-63
2023/12/15 13:35:18;;;;;;;25.88;15.10;;;7.60;99.90;;;;;;6129637;23;20080;-64
2023/12/15 13:38:05;;;;;;;24.88;14.27;;;7.60;99.90;;;;;;6129713;23;20009;-63
2023/12/15 13:40:51;;;;;;;25.77;14.35;;;7.70;99.90;;;;;;6151456;23;20403;-63
2023/12/15 13:43:37;;;;;;;25.02;14.07;;;7.70;99.90;;;;;;6129892;23;20088;-63
2023/12/15 13:46:23;;;;;;;23.77;13.02;;;7.70;99.90;;;;;;6150058;23;20013;-63
2023/12/15 13:49:09;;;;;;;23.45;14.40;;;7.70;99.90;;;;;;6149872;23;20447;-63
2023/12/15 13:51:55;;;;;;;30.20;16.02;;;7.70;99.90;;;;;;6149774;23;20052;-63
2023/12/15 13:54:41;;;;;;;29.27;15.27;;;7.70;99.90;;;;;;6150112;23;20005;-63
2023/12/15 13:57:27;;;;;;;23.38;14.60;;;7.70;99.90;;;;;;6151086;23;20072;-63
2023/12/15 14:00:14;;;;;;;26.42;14.43;;;7.70;99.90;;;;;;6151179;23;20413;-63
2023/12/15 14:03:00;;;;;;;28.42;16.38;;;7.70;99.90;;;;;;6126118;23;20114;-64
2023/12/15 14:05:46;;;;;;;23.52;13.63;;;7.70;99.90;;;;;;6148967;23;20013;-64
2023/12/15 14:08:32;;;;;;;25.55;14.40;;;7.80;99.90;;;;;;6150512;23;20009;-63
2023/12/15 14:11:18;;;;;;;24.08;13.77;;;7.80;99.90;;;;;;6150371;23;20076;-63
2023/12/15 14:14:05;;;;;;;24.13;14.38;;;7.80;99.90;;;;;;6130339;23;20435;-63
2023/12/15 14:16:51;;;;;;;24.10;13.70;;;7.80;99.90;;;;;;6150227;23;20020;-63
2023/12/15 14:19:37;;;;;;;28.73;15.45;;;7.80;99.90;;;;;;6149520;23;20012;-63
2023/12/15 14:22:23;;;;;;;26.83;15.70;;;7.80;99.90;;;;;;6148458;23;20045;-63